Time;durP1;ratioP1;P1;durP2;ratioP2;P2;SDS_P1;SDS_P2;PMS_P1;PMS_P2;Temp;Humidity;BMP_temperature;BMP_pressure;BME280_temperature;BME280_humidity;BME280_pressure;Samples;Min_cycle;Max_cycle;Signal;HPM_P1;HPM_P2
2023/06/27 00:01:00;;;;;;;1.35;1.13;;;19.90;87.30;;;;;;5111608;28;20478;-54
2023/06/27 00:03:26;;;;;;;4.95;1.50;;;19.90;87.40;;;;;;5111546;28;20020;-54
2023/06/27 00:05:51;;;;;;;2.30;1.33;;;19.60;87.30;;;;;;5110956;28;20078;-55
2023/06/27 00:08:17;;;;;;;3.10;1.33;;;19.90;87.50;;;;;;5114088;28;20095;-52
2023/06/27 00:10:42;;;;;;;4.10;1.60;;;19.90;87.80;;;;;;5115726;28;20031;-54
2023/06/27 00:13:15;;;;;;;2.10;1.48;;;19.80;87.80;;;;;;5115689;28;20027;-57
2023/06/27 00:15:41;;;;;;;1.95;1.23;;;19.90;88.10;;;;;;5113934;28;20483;-54
2023/06/27 00:18:07;;;;;;;2.05;1.42;;;19.80;87.90;;;;;;5115616;28;20038;-55
2023/06/27 00:20:34;;;;;;;4.07;1.50;;;19.80;88.20;;;;;;5115519;28;20027;-52
2023/06/27 00:23:16;;;;;;;4.15;2.05;;;19.80;88.20;;;;;;5115515;28;20501;-55
2023/06/27 00:25:42;;;;;;;5.25;2.13;;;19.70;88.50;;;;;;5096359;28;20024;-57
2023/06/27 00:28:07;;;;;;;3.85;1.48;;;19.60;88.90;;;;;;5115444;28;20447;-58
2023/06/27 00:30:33;;;;;;;4.20;1.67;;;19.60;88.90;;;;;;5115359;28;20046;-51
2023/06/27 00:32:59;;;;;;;4.32;1.88;;;19.60;89.30;;;;;;5115358;28;20031;-57
2023/06/27 00:35:26;;;;;;;4.38;1.42;;;19.50;89.30;;;;;;5096237;28;20028;-52
2023/06/27 00:37:52;;;;;;;2.50;1.40;;;19.50;89.60;;;;;;5115374;28;20029;-55
2023/06/27 00:40:18;;;;;;;4.22;1.58;;;19.40;89.80;;;;;;5115079;28;20503;-56
2023/06/27 00:42:43;;;;;;;5.03;1.83;;;19.30;90.00;;;;;;5115179;28;20038;-53
2023/06/27 00:45:09;;;;;;;4.28;2.90;;;19.30;90.10;;;;;;5114620;28;20016;-55
2023/06/27 00:47:35;;;;;;;5.45;2.50;;;19.30;90.20;;;;;;5115143;28;20088;-55
2023/06/27 00:50:01;;;;;;;7.50;1.40;;;19.30;90.60;;;;;;5115339;28;20050;-55
2023/06/27 00:52:27;;;;;;;9.38;1.67;;;19.30;90.60;;;;;;5113920;28;20161;-54
2023/06/27 00:54:53;;;;;;;5.68;1.55;;;19.30;91.20;;;;;;5114081;28;20368;-56
2023/06/27 00:57:18;;;;;;;5.07;1.77;;;19.30;91.60;;;;;;5114974;28;20042;-54
2023/06/27 00:59:45;;;;;;;6.18;1.58;;;19.30;91.70;;;;;;5114778;28;20040;-52
2023/06/27 01:02:11;;;;;;;5.20;1.67;;;19.20;91.50;;;;;;5115106;28;20027;-57
2023/06/27 01:04:39;;;;;;;2.00;1.80;;;19.20;91.70;;;;;;5115483;28;20027;-57
2023/06/27 01:07:10;;;;;;;3.10;1.70;;;19.20;92.30;;;;;;5115826;28;20035;-57
2023/06/27 01:09:51;;;;;;;5.60;1.67;;;19.20;92.30;;;;;;5097675;28;20024;-57
2023/06/27 01:12:32;;;;;;;4.85;1.52;;;19.10;92.70;;;;;;5116087;28;20076;-55
2023/06/27 01:14:59;;;;;;;3.35;1.80;;;19.10;92.70;;;;;;5095479;28;20108;-57
2023/06/27 01:17:27;;;;;;;10.30;1.48;;;19.00;92.80;;;;;;5114466;28;20028;-56
2023/06/27 01:19:53;;;;;;;6.13;1.25;;;19.00;93.10;;;;;;5094967;28;20495;-55
2023/06/27 01:22:28;;;;;;;6.28;1.33;;;18.80;93.30;;;;;;5113398;28;20107;-53
2023/06/27 01:24:54;;;;;;;7.50;1.73;;;18.80;93.70;;;;;;5113653;28;20023;-55
2023/06/27 01:27:19;;;;;;;2.65;1.40;;;18.80;93.80;;;;;;5114339;28;20019;-55
2023/06/27 01:29:45;;;;;;;2.20;1.23;;;18.70;93.90;;;;;;5114515;28;20019;-53
2023/06/27 01:32:36;;;;;;;6.22;1.25;;;18.70;94.10;;;;;;5114370;28;20102;-53
2023/06/27 01:35:12;;;;;;;7.57;1.50;;;18.60;94.30;;;;;;5113532;28;20020;-55
2023/06/27 01:38:02;;;;;;;4.55;1.40;;;18.70;94.80;;;;;;5114118;28;20023;-53
2023/06/27 01:40:32;;;;;;;3.08;1.25;;;18.50;94.60;;;;;;5113900;28;20500;-54
2023/06/27 01:43:08;;;;;;;5.40;1.70;;;18.30;94.70;;;;;;5095878;28;20179;-54
2023/06/27 01:45:36;;;;;;;2.70;1.52;;;18.20;95.40;;;;;;5113255;28;20018;-55
2023/06/27 01:48:01;;;;;;;7.32;1.88;;;18.20;96.10;;;;;;5095697;28;20406;-55
2023/06/27 01:50:27;;;;;;;2.95;1.65;;;18.20;96.30;;;;;;5113776;28;20036;-57
2023/06/27 01:52:53;;;;;;;4.47;1.50;;;18.20;96.30;;;;;;5113822;28;20027;-56
2023/06/27 01:55:19;;;;;;;2.08;1.70;;;18.10;96.50;;;;;;5112109;28;20028;-55
2023/06/27 01:57:44;;;;;;;7.47;1.63;;;18.10;96.30;;;;;;5114207;28;20054;-52
2023/06/27 02:00:10;;;;;;;4.30;1.48;;;18.10;96.10;;;;;;5113540;28;20387;-53
2023/06/27 02:02:36;;;;;;;4.38;1.50;;;18.00;96.30;;;;;;5095263;28;20144;-54
2023/06/27 02:05:02;;;;;;;4.10;1.25;;;18.00;96.70;;;;;;5113041;28;20024;-56
2023/06/27 02:07:28;;;;;;;4.63;1.35;;;17.90;96.80;;;;;;5094124;28;20028;-57
2023/06/27 02:09:53;;;;;;;3.58;1.80;;;17.90;97.00;;;;;;5113548;28;20024;-57
2023/06/27 02:12:19;;;;;;;3.60;1.63;;;17.90;97.20;;;;;;5113381;28;20023;-58
2023/06/27 02:14:44;;;;;;;2.85;1.60;;;17.90;97.50;;;;;;5112669;28;20446;-56
2023/06/27 02:17:10;;;;;;;5.72;1.85;;;18.00;97.70;;;;;;5113403;28;20029;-55
2023/06/27 02:19:36;;;;;;;2.90;2.40;;;18.00;97.50;;;;;;5113014;28;20055;-56
2023/06/27 02:22:02;;;;;;;5.57;1.52;;;18.00;98.00;;;;;;5113227;28;20110;-54
2023/06/27 02:24:27;;;;;;;5.85;1.45;;;18.00;97.80;;;;;;5094605;28;20020;-53
2023/06/27 02:26:53;;;;;;;2.15;1.20;;;17.90;97.90;;;;;;5094530;28;20020;-55
2023/06/27 02:29:18;;;;;;;2.22;1.42;;;17.80;98.40;;;;;;5111740;28;20028;-54
2023/06/27 02:31:44;;;;;;;3.17;1.52;;;17.80;98.60;;;;;;5113034;28;20028;-52
2023/06/27 02:34:09;;;;;;;4.28;1.60;;;17.70;98.70;;;;;;5112708;28;20402;-55
2023/06/27 02:36:35;;;;;;;2.25;1.30;;;17.70;99.00;;;;;;5112652;28;20032;-52
2023/06/27 02:39:01;;;;;;;9.23;3.40;;;17.60;99.20;;;;;;5112720;28;20075;-56
2023/06/27 02:41:27;;;;;;;5.05;1.58;;;17.60;99.70;;;;;;5094692;28;20456;-56
2023/06/27 02:43:52;;;;;;;6.35;2.08;;;17.70;99.80;;;;;;5112499;28;20366;-54
2023/06/27 02:46:18;;;;;;;3.38;1.40;;;17.70;99.90;;;;;;5112403;28;20489;-55
2023/06/27 02:48:44;;;;;;;2.30;1.30;;;17.70;99.90;;;;;;5094403;28;20114;-56
2023/06/27 02:51:09;;;;;;;1.52;1.40;;;17.80;99.90;;;;;;5112793;28;20161;-51
2023/06/27 02:53:35;;;;;;;1.55;1.15;;;17.80;99.90;;;;;;5112138;28;20072;-55
2023/06/27 02:56:03;;;;;;;4.85;2.10;;;17.70;99.90;;;;;;5112329;28;20038;-58
2023/06/27 02:58:32;;;;;;;5.25;1.90;;;17.70;99.90;;;;;;5112610;28;20094;-56
2023/06/27 03:01:03;;;;;;;2.53;1.38;;;17.70;99.90;;;;;;5112501;28;20077;-59
2023/06/27 03:03:29;;;;;;;7.10;2.03;;;17.50;99.90;;;;;;5112376;28;20020;-55
2023/06/27 03:05:54;;;;;;;7.00;1.70;;;17.40;99.90;;;;;;5111157;28;20027;-56
2023/06/27 03:08:20;;;;;;;3.80;2.10;;;17.40;99.90;;;;;;5111433;28;20023;-55
2023/06/27 03:10:45;;;;;;;3.13;1.50;;;17.40;99.90;;;;;;5094186;28;20515;-54
2023/06/27 03:13:11;;;;;;;3.92;1.45;;;17.30;99.90;;;;;;5112410;28;20347;-53
2023/06/27 03:15:36;;;;;;;2.10;1.40;;;17.30;99.90;;;;;;5111454;28;20071;-52
2023/06/27 03:18:02;;;;;;;2.65;1.38;;;17.30;99.90;;;;;;5112331;28;20034;-56
2023/06/27 03:20:27;;;;;;;8.60;2.17;;;17.30;99.90;;;;;;5112004;28;20027;-58
2023/06/27 03:22:53;;;;;;;5.13;1.52;;;17.30;99.90;;;;;;5112270;28;20019;-55
2023/06/27 03:25:19;;;;;;;2.30;1.73;;;17.30;99.90;;;;;;5093185;28;20012;-57
2023/06/27 03:27:44;;;;;;;3.20;1.90;;;17.30;99.90;;;;;;5112087;28;20548;-58
2023/06/27 03:30:10;;;;;;;6.70;1.90;;;17.30;99.90;;;;;;5112476;28;20122;-57
2023/06/27 03:32:35;;;;;;;4.47;2.00;;;17.30;99.90;;;;;;5112170;28;20028;-56
2023/06/27 03:35:01;;;;;;;4.32;1.77;;;17.30;99.90;;;;;;5111821;28;20059;-57
2023/06/27 03:37:27;;;;;;;13.40;2.25;;;17.30;99.90;;;;;;5112091;28;20036;-56
2023/06/27 03:39:52;;;;;;;2.75;1.73;;;17.30;99.90;;;;;;5110795;28;20031;-52
2023/06/27 03:42:18;;;;;;;2.60;1.50;;;17.20;99.90;;;;;;5111350;28;20027;-56
2023/06/27 03:44:44;;;;;;;3.53;1.55;;;17.20;99.90;;;;;;5110769;28;20050;-53
2023/06/27 03:47:10;;;;;;;2.53;1.58;;;17.20;99.90;;;;;;5111922;28;20020;-53
2023/06/27 03:49:35;;;;;;;3.60;1.77;;;17.20;99.90;;;;;;5112017;28;20023;-54
2023/06/27 03:52:01;;;;;;;1.70;1.60;;;17.20;99.90;;;;;;5111839;28;20024;-56
2023/06/27 03:54:26;;;;;;;4.28;2.17;;;17.20;99.90;;;;;;5111629;28;20019;-56
2023/06/27 03:56:52;;;;;;;2.28;1.95;;;17.20;99.90;;;;;;5111457;28;20111;-54
2023/06/27 03:59:18;;;;;;;7.45;1.98;;;17.20;99.90;;;;;;5111748;28;20380;-56
2023/06/27 04:01:43;;;;;;;5.97;1.85;;;17.10;99.90;;;;;;5111542;28;20456;-54
2023/06/27 04:04:09;;;;;;;3.33;1.65;;;17.20;99.90;;;;;;5111411;28;20032;-55
2023/06/27 04:06:34;;;;;;;7.30;2.53;;;17.30;99.90;;;;;;5093068;28;20093;-54
2023/06/27 04:09:03;;;;;;;4.90;1.92;;;17.30;99.90;;;;;;5111358;28;20016;-56
2023/06/27 04:11:28;;;;;;;4.57;1.45;;;17.30;99.90;;;;;;5111600;28;20066;-56
2023/06/27 04:13:56;;;;;;;8.63;1.90;;;17.30;99.90;;;;;;5110176;28;20051;-54
2023/06/27 04:16:22;;;;;;;3.97;1.70;;;17.30;99.90;;;;;;5092928;28;20114;-55
2023/06/27 04:18:48;;;;;;;3.63;1.63;;;17.40;99.90;;;;;;5111167;28;20110;-56
2023/06/27 04:21:13;;;;;;;6.43;1.38;;;17.50;99.90;;;;;;5111518;28;20034;-56
2023/06/27 04:23:39;;;;;;;15.02;1.88;;;17.50;99.90;;;;;;5111020;28;20030;-52
2023/06/27 04:26:07;;;;;;;2.92;1.63;;;17.50;99.90;;;;;;5111265;28;20062;-55
2023/06/27 04:28:36;;;;;;;3.53;1.50;;;17.40;99.90;;;;;;5111449;28;20030;-53
2023/06/27 04:31:02;;;;;;;5.88;1.80;;;17.40;99.90;;;;;;5111464;28;20032;-55
2023/06/27 04:33:28;;;;;;;3.38;1.58;;;17.40;99.90;;;;;;5111592;28;20035;-53
2023/06/27 04:35:57;;;;;;;10.68;1.77;;;17.50;99.90;;;;;;5110654;28;20107;-55
2023/06/27 04:38:22;;;;;;;4.65;1.70;;;17.40;99.90;;;;;;5111466;28;20023;-56
2023/06/27 04:40:48;;;;;;;7.30;1.83;;;17.40;99.90;;;;;;5111178;28;20531;-55
2023/06/27 04:43:14;;;;;;;6.00;2.58;;;17.40;99.90;;;;;;5111472;28;20034;-53
2023/06/27 04:45:39;;;;;;;3.28;1.60;;;17.50;99.90;;;;;;5110773;28;20072;-55
2023/06/27 04:48:05;;;;;;;4.32;2.17;;;17.60;99.90;;;;;;5112337;28;20032;-57
2023/06/27 04:50:30;;;;;;;3.67;1.85;;;17.60;99.90;;;;;;5110380;28;20028;-55
2023/06/27 04:52:56;;;;;;;6.97;1.95;;;17.70;99.90;;;;;;5112335;28;20102;-53
2023/06/27 04:55:21;;;;;;;5.10;2.08;;;17.70;99.90;;;;;;5114239;28;20037;-57
2023/06/27 04:57:47;;;;;;;3.88;1.50;;;17.70;99.90;;;;;;5115117;28;20510;-53
2023/06/27 05:00:13;;;;;;;2.22;2.03;;;17.80;99.90;;;;;;5115106;28;20028;-55
2023/06/27 05:02:38;;;;;;;8.82;2.45;;;17.80;99.90;;;;;;5115310;28;20020;-54
2023/06/27 05:05:07;;;;;;;3.38;1.67;;;17.90;99.90;;;;;;5114914;28;20475;-53
2023/06/27 05:07:33;;;;;;;4.88;2.10;;;17.90;99.90;;;;;;5096243;28;20016;-55
2023/06/27 05:09:58;;;;;;;4.45;2.03;;;18.00;99.90;;;;;;5128159;22;20040;-53
2023/06/27 05:12:24;;;;;;;10.13;1.92;;;17.90;99.90;;;;;;5072705;28;20016;-54
2023/06/27 05:14:49;;;;;;;24.85;2.05;;;18.00;99.90;;;;;;5071957;28;20024;-50
2023/06/27 05:17:15;;;;;;;3.33;1.48;;;18.00;99.90;;;;;;5072639;28;20017;-51
2023/06/27 05:19:40;;;;;;;10.80;1.75;;;17.90;99.90;;;;;;5055724;28;20028;-54
2023/06/27 05:22:06;;;;;;;2.90;1.77;;;18.00;99.90;;;;;;5073759;28;20104;-50
2023/06/27 05:24:31;;;;;;;3.33;1.80;;;18.00;99.90;;;;;;5072586;28;20042;-53
2023/06/27 05:26:57;;;;;;;3.70;1.80;;;18.00;99.90;;;;;;5073411;28;20025;-49
2023/06/27 05:29:22;;;;;;;4.65;1.77;;;18.00;99.90;;;;;;5073839;28;20107;-52
2023/06/27 05:31:47;;;;;;;3.92;1.60;;;18.10;99.90;;;;;;5073430;28;20020;-55
2023/06/27 05:34:13;;;;;;;6.45;1.42;;;18.10;99.90;;;;;;5073241;28;20032;-51
2023/06/27 05:36:38;;;;;;;4.93;1.40;;;18.20;99.90;;;;;;5073192;28;20036;-56
2023/06/27 05:39:04;;;;;;;2.90;1.63;;;18.20;99.90;;;;;;5055828;28;20097;-52
2023/06/27 05:41:30;;;;;;;4.15;1.58;;;18.20;99.90;;;;;;5073384;28;20377;-50
2023/06/27 05:43:56;;;;;;;2.80;1.75;;;18.30;99.90;;;;;;5055100;28;20103;-53
2023/06/27 05:46:21;;;;;;;3.45;1.73;;;18.50;99.90;;;;;;5072854;28;20025;-52
2023/06/27 05:48:47;;;;;;;5.15;1.85;;;18.70;99.90;;;;;;5073156;28;20025;-50
2023/06/27 05:51:12;;;;;;;6.97;1.80;;;18.90;99.90;;;;;;5055466;28;20534;-56
2023/06/27 05:53:39;;;;;;;5.00;1.83;;;19.00;99.90;;;;;;5054908;28;20035;-50
2023/06/27 05:56:05;;;;;;;3.22;2.13;;;19.00;99.90;;;;;;5072983;28;20031;-54
2023/06/27 05:58:33;;;;;;;10.07;2.13;;;19.20;99.90;;;;;;5072293;28;20107;-53
2023/06/27 06:00:59;;;;;;;5.00;2.58;;;19.20;99.90;;;;;;5073088;28;20063;-51
2023/06/27 06:03:24;;;;;;;6.70;1.75;;;19.20;99.90;;;;;;5073131;28;20064;-52
2023/06/27 06:05:50;;;;;;;6.25;2.95;;;19.30;99.90;;;;;;5071891;28;20024;-55
2023/06/27 06:08:15;;;;;;;4.65;2.10;;;19.20;99.90;;;;;;5072003;28;20021;-55
2023/06/27 06:10:41;;;;;;;5.28;1.45;;;19.30;99.90;;;;;;5072853;28;20111;-52
2023/06/27 06:13:06;;;;;;;5.88;1.50;;;19.30;99.90;;;;;;5054987;28;20031;-53
2023/06/27 06:15:32;;;;;;;10.27;2.10;;;19.40;99.90;;;;;;5072052;28;20404;-55
2023/06/27 06:17:57;;;;;;;4.32;1.58;;;19.60;99.90;;;;;;5072853;28;20035;-52
2023/06/27 06:20:23;;;;;;;1.65;1.50;;;19.80;99.90;;;;;;5072656;28;20504;-53
2023/06/27 06:22:48;;;;;;;3.65;1.50;;;20.00;99.90;;;;;;5072909;28;20032;-53
2023/06/27 06:25:14;;;;;;;7.70;2.63;;;19.80;99.90;;;;;;5054155;28;20023;-50
2023/06/27 06:27:39;;;;;;;5.25;1.83;;;19.90;99.70;;;;;;5072906;28;20476;-52
2023/06/27 06:30:05;;;;;;;3.83;1.80;;;19.90;98.90;;;;;;5072609;28;20029;-56
2023/06/27 06:32:31;;;;;;;5.10;1.70;;;20.00;98.60;;;;;;5072561;28;20086;-54
2023/06/27 06:34:56;;;;;;;5.80;1.70;;;20.10;98.50;;;;;;5071706;28;20460;-55
2023/06/27 06:37:22;;;;;;;1.30;1.20;;;20.30;98.30;;;;;;5072605;28;20538;-54
2023/06/27 06:39:47;;;;;;;3.38;1.35;;;20.40;98.20;;;;;;5072764;28;20032;-55
2023/06/27 06:42:13;;;;;;;4.00;1.55;;;20.60;98.00;;;;;;5054564;28;20062;-55
2023/06/27 06:44:38;;;;;;;3.20;1.63;;;20.70;97.60;;;;;;5071962;28;20028;-54
2023/06/27 06:47:04;;;;;;;2.05;1.40;;;21.30;96.70;;;;;;5072178;28;20472;-53
2023/06/27 06:49:30;;;;;;;3.65;1.63;;;21.60;96.30;;;;;;5072283;28;20027;-58
2023/06/27 06:51:55;;;;;;;3.03;1.40;;;21.70;96.00;;;;;;5072319;28;20029;-52
2023/06/27 06:54:21;;;;;;;2.55;1.38;;;22.10;95.80;;;;;;5071833;28;20059;-52
2023/06/27 06:56:48;;;;;;;2.25;1.23;;;23.00;94.00;;;;;;5071814;28;20021;-54
2023/06/27 06:59:14;;;;;;;1.92;1.73;;;24.00;92.20;;;;;;5072047;28;20442;-55
2023/06/27 07:01:41;;;;;;;5.40;1.15;;;25.00;91.20;;;;;;5072071;28;20105;-54
2023/06/27 07:04:06;;;;;;;6.63;1.50;;;26.00;87.20;;;;;;5071798;28;20090;-53
2023/06/27 07:06:32;;;;;;;2.38;1.13;;;27.40;82.90;;;;;;5049868;28;20070;-55
2023/06/27 07:08:57;;;;;;;6.55;1.40;;;27.30;80.50;;;;;;5063799;28;20468;-52
2023/06/27 07:11:23;;;;;;;2.15;1.23;;;26.60;80.20;;;;;;5071313;28;20415;-52
2023/06/27 07:13:48;;;;;;;4.28;1.30;;;26.10;81.50;;;;;;5052871;28;20032;-53
2023/06/27 07:16:14;;;;;;;3.17;1.58;;;26.20;80.50;;;;;;5070299;28;20227;-50
2023/06/27 07:18:39;;;;;;;4.78;1.10;;;26.00;81.00;;;;;;5071807;28;20024;-55
2023/06/27 07:21:05;;;;;;;3.97;1.38;;;26.00;80.50;;;;;;5065594;28;20082;-59
2023/06/27 07:23:30;;;;;;;1.73;1.20;;;25.90;79.40;;;;;;5071849;28;20451;-54
2023/06/27 07:25:56;;;;;;;2.95;1.30;;;;;;;;;;5071808;28;20037;-53
2023/06/27 07:28:21;;;;;;;3.38;1.20;;;25.30;79.50;;;;;;5071940;28;20103;-51
2023/06/27 07:30:47;;;;;;;3.92;1.20;;;;;;;;;;5071708;28;20552;-56
2023/06/27 07:33:13;;;;;;;4.88;1.40;;;25.30;80.00;;;;;;5071976;28;20032;-55
2023/06/27 07:35:39;;;;;;;1.90;1.08;;;25.00;80.90;;;;;;5070902;28;20064;-54
2023/06/27 07:38:04;;;;;;;5.22;1.60;;;24.80;81.30;;;;;;5071989;28;20063;-53
2023/06/27 07:40:30;;;;;;;2.88;0.95;;;24.60;81.20;;;;;;5071709;28;20446;-56
2023/06/27 07:42:55;;;;;;;3.22;1.42;;;24.20;81.90;;;;;;5071571;28;20021;-53
2023/06/27 07:45:21;;;;;;;2.95;1.23;;;24.10;81.90;;;;;;5071415;28;20066;-50
2023/06/27 07:47:46;;;;;;;2.83;1.50;;;24.10;81.70;;;;;;5053661;28;20028;-53
2023/06/27 07:50:12;;;;;;;1.95;1.15;;;24.30;81.20;;;;;;5071676;28;20059;-57
2023/06/27 07:52:37;;;;;;;2.95;1.30;;;24.10;82.40;;;;;;5071610;28;20020;-51
2023/06/27 07:55:03;;;;;;;6.07;2.20;;;24.20;81.90;;;;;;5070649;28;20024;-51
2023/06/27 07:57:28;;;;;;;4.88;1.42;;;24.00;80.70;;;;;;5071204;28;20039;-54
2023/06/27 07:59:54;;;;;;;3.67;1.70;;;23.70;82.30;;;;;;5060829;28;20082;-58
2023/06/27 08:02:20;;;;;;;5.45;1.40;;;23.50;84.10;;;;;;5071556;28;20492;-59
2023/06/27 08:04:45;;;;;;;4.60;1.35;;;23.20;83.80;;;;;;5070662;28;20016;-57
2023/06/27 08:07:11;;;;;;;1.98;1.13;;;23.70;83.90;;;;;;5071423;28;20535;-58
2023/06/27 08:09:36;;;;;;;2.22;1.30;;;24.50;82.30;;;;;;5053972;28;20059;-56
2023/06/27 08:12:03;;;;;;;4.72;1.50;;;24.50;81.90;;;;;;5049519;28;20025;-57
2023/06/27 08:14:28;;;;;;;3.17;1.50;;;23.80;82.80;;;;;;5066105;28;20082;-52
2023/06/27 08:16:54;;;;;;;4.57;1.30;;;23.70;83.70;;;;;;5068544;28;20036;-58
2023/06/27 08:19:19;;;;;;;1.70;1.60;;;23.40;84.50;;;;;;5074904;28;20025;-54
2023/06/27 08:21:45;;;;;;;4.32;1.23;;;23.00;84.10;;;;;;5067350;28;20029;-60
2023/06/27 08:24:10;;;;;;;2.70;1.40;;;22.80;85.50;;;;;;5060884;28;20021;-51
2023/06/27 08:26:36;;;;;;;5.55;1.23;;;22.70;85.60;;;;;;5032737;28;20049;-54
2023/06/27 08:29:01;;;;;;;5.50;1.27;;;22.80;85.80;;;;;;5047663;28;20017;-55
2023/06/27 08:31:27;;;;;;;1.70;1.33;;;22.80;86.20;;;;;;5069985;28;20028;-53
2023/06/27 08:33:52;;;;;;;4.03;1.42;;;22.90;86.40;;;;;;5075439;28;20471;-52
2023/06/27 08:36:19;;;;;;;3.10;1.45;;;22.90;86.40;;;;;;5073921;28;20115;-53
2023/06/27 08:38:45;;;;;;;2.67;1.30;;;22.90;86.00;;;;;;5074981;28;20408;-51
2023/06/27 08:41:13;;;;;;;4.85;1.63;;;22.90;85.70;;;;;;5074616;28;20027;-54
2023/06/27 08:43:39;;;;;;;2.10;1.38;;;23.00;85.40;;;;;;5054965;28;20403;-54
2023/06/27 08:46:08;;;;;;;5.63;2.08;;;23.20;85.30;;;;;;5054136;28;20083;-55
2023/06/27 08:48:37;;;;;;;5.00;1.65;;;23.40;85.00;;;;;;5054550;28;20035;-56
2023/06/27 08:51:04;;;;;;;2.42;1.45;;;23.80;84.40;;;;;;5054826;28;20029;-51
2023/06/27 08:53:33;;;;;;;3.53;1.25;;;24.40;84.20;;;;;;5064963;28;20097;-50
2023/06/27 08:56:05;;;;;;;4.95;1.40;;;24.80;81.90;;;;;;5055665;28;20123;-54
2023/06/27 08:58:39;;;;;;;4.55;1.60;;;25.30;80.90;;;;;;5074343;28;20104;-57
2023/06/27 09:01:05;;;;;;;5.90;1.97;;;25.60;78.90;;;;;;5075591;28;20052;-60
2023/06/27 09:03:31;;;;;;;5.55;1.45;;;25.70;78.80;;;;;;5074644;28;20028;-51
2023/06/27 09:05:57;;;;;;;2.45;1.30;;;26.20;77.80;;;;;;5073322;28;20020;-56
2023/06/27 09:08:22;;;;;;;8.05;1.73;;;26.60;77.60;;;;;;5074354;28;20107;-51
2023/06/27 09:10:48;;;;;;;5.22;1.83;;;26.80;76.50;;;;;;5055970;28;20033;-53
2023/06/27 09:13:15;;;;;;;1.92;1.40;;;26.40;75.40;;;;;;5068660;28;20028;-57
2023/06/27 09:15:41;;;;;;;3.35;1.30;;;26.00;76.40;;;;;;5055044;28;20524;-61
2023/06/27 09:18:06;;;;;;;3.92;1.00;;;25.90;76.60;;;;;;5066613;28;20029;-59
2023/06/27 09:20:32;;;;;;;8.20;5.85;;;26.20;77.80;;;;;;5053929;28;20025;-56
2023/06/27 09:23:02;;;;;;;4.70;2.70;;;26.20;77.60;;;;;;5054470;28;20029;-53
2023/06/27 09:25:28;;;;;;;5.45;1.40;;;26.00;76.90;;;;;;5053048;28;20013;-55
2023/06/27 09:27:53;;;;;;;2.47;1.60;;;25.70;76.00;;;;;;5044534;28;20107;-58
2023/06/27 09:30:19;;;;;;;2.20;1.50;;;25.40;77.60;;;;;;5072722;28;20020;-55
2023/06/27 09:32:55;;;;;;;4.80;1.77;;;25.20;76.40;;;;;;5072630;28;20032;-54
2023/06/27 09:35:21;;;;;;;5.25;1.60;;;24.90;77.50;;;;;;5072657;28;20392;-57
2023/06/27 09:37:47;;;;;;;4.80;2.17;;;24.80;78.20;;;;;;5073244;28;20036;-52
2023/06/27 09:40:20;;;;;;;1.30;1.20;;;24.60;77.70;;;;;;5072652;28;20373;-59
2023/06/27 09:42:53;;;;;;;3.20;1.27;;;24.40;78.70;;;;;;5054241;28;20028;-58
2023/06/27 09:45:20;;;;;;;3.83;1.67;;;24.50;78.00;;;;;;5070578;28;20099;-58
2023/06/27 09:47:49;;;;;;;2.75;1.30;;;24.60;78.60;;;;;;5072449;28;20523;-54
2023/06/27 09:50:15;;;;;;;2.85;1.52;;;24.70;78.30;;;;;;5053066;28;20033;-58
2023/06/27 09:52:51;;;;;;;3.50;1.40;;;24.90;77.50;;;;;;5055793;28;20032;-59
2023/06/27 09:55:18;;;;;;;2.35;1.38;;;24.80;76.40;;;;;;5071600;28;20024;-59
2023/06/27 09:57:44;;;;;;;4.70;1.30;;;25.00;75.90;;;;;;5070961;28;20030;-55
2023/06/27 10:00:11;;;;;;;3.45;1.52;;;25.00;74.60;;;;;;5072871;28;20074;-51
2023/06/27 10:02:37;;;;;;;4.63;1.70;;;24.90;74.70;;;;;;5053538;28;20105;-55
2023/06/27 10:05:04;;;;;;;2.80;1.42;;;25.00;75.70;;;;;;5064460;28;20025;-52
2023/06/27 10:07:33;;;;;;;4.60;1.30;;;25.00;74.60;;;;;;5053064;28;20025;-53
2023/06/27 10:09:59;;;;;;;6.93;1.40;;;25.00;75.80;;;;;;5066949;28;20039;-53
2023/06/27 10:12:24;;;;;;;4.75;1.20;;;25.00;74.70;;;;;;5054686;28;20028;-50
2023/06/27 10:14:50;;;;;;;3.08;1.25;;;24.90;74.40;;;;;;5071999;28;20020;-54
2023/06/27 10:17:19;;;;;;;5.07;1.27;;;25.00;76.70;;;;;;5073496;28;20025;-59
2023/06/27 10:19:45;;;;;;;3.53;1.27;;;25.10;75.60;;;;;;5052567;28;20028;-56
2023/06/27 10:22:15;;;;;;;2.58;1.30;;;25.40;75.20;;;;;;5066974;28;20029;-60
2023/06/27 10:24:43;;;;;;;5.28;1.27;;;25.50;74.70;;;;;;5071896;28;20082;-59
2023/06/27 10:27:12;;;;;;;4.93;2.22;;;25.30;74.40;;;;;;5054982;28;20028;-53
2023/06/27 10:29:42;;;;;;;4.85;1.30;;;24.90;73.60;;;;;;5052084;28;20086;-54
2023/06/27 10:32:14;;;;;;;2.97;1.20;;;24.60;73.90;;;;;;5068741;28;20295;-56
2023/06/27 10:34:41;;;;;;;3.45;1.30;;;24.80;75.00;;;;;;5071068;28;20032;-55
2023/06/27 10:37:10;;;;;;;4.18;1.52;;;24.80;75.30;;;;;;5069034;28;20028;-54
2023/06/27 10:39:37;;;;;;;3.55;1.20;;;24.90;74.10;;;;;;5072151;28;20393;-53
2023/06/27 10:42:25;;;;;;;5.63;1.50;;;24.80;74.00;;;;;;5054110;28;20029;-57
2023/06/27 10:45:06;;;;;;;4.43;1.20;;;24.90;75.80;;;;;;5053532;28;20027;-54
2023/06/27 10:47:42;;;;;;;6.13;1.52;;;25.00;75.20;;;;;;5064877;28;20481;-54
2023/06/27 10:50:09;;;;;;;5.70;1.50;;;25.30;75.20;;;;;;5071305;28;20024;-52
2023/06/27 10:52:35;;;;;;;3.97;1.38;;;25.30;73.10;;;;;;5071814;28;20017;-55
2023/06/27 10:55:18;;;;;;;3.35;1.23;;;25.20;74.10;;;;;;5065826;28;20039;-58
2023/06/27 10:57:48;;;;;;;11.43;2.80;;;24.80;73.80;;;;;;5071709;28;20063;-54
2023/06/27 11:00:28;;;;;;;3.72;1.30;;;25.00;72.90;;;;;;5071791;28;20032;-55
2023/06/27 11:02:56;;;;;;;4.65;1.20;;;25.00;72.80;;;;;;5071827;28;20024;-56
2023/06/27 11:05:37;;;;;;;3.60;1.40;;;25.00;74.50;;;;;;5070788;28;20025;-57
2023/06/27 11:08:07;;;;;;;2.40;1.00;;;25.10;72.80;;;;;;5066880;28;20442;-54
2023/06/27 11:10:32;;;;;;;4.47;1.23;;;25.00;74.30;;;;;;5083886;22;20031;-53
2023/06/27 11:13:21;;;;;;;2.65;1.73;;;24.90;74.70;;;;;;5042108;28;20038;-56
2023/06/27 11:15:48;;;;;;;2.20;1.00;;;24.90;74.50;;;;;;5040304;28;20051;-56
2023/06/27 11:18:17;;;;;;;7.05;4.03;;;24.90;74.80;;;;;;5050867;28;20017;-55
2023/06/27 11:20:43;;;;;;;3.42;1.20;;;24.90;74.50;;;;;;5051626;28;20029;-52
2023/06/27 11:23:09;;;;;;;2.95;1.58;;;24.80;73.30;;;;;;5049364;28;20025;-53
2023/06/27 11:25:42;;;;;;;8.98;1.55;;;24.90;74.90;;;;;;5050849;28;20397;-49
2023/06/27 11:28:12;;;;;;;6.40;1.30;;;25.00;73.50;;;;;;5056285;28;20036;-50
2023/06/27 11:30:38;;;;;;;6.82;1.63;;;25.00;72.10;;;;;;5052253;28;20020;-49
2023/06/27 11:33:04;;;;;;;3.42;1.38;;;25.00;72.00;;;;;;5041946;28;20105;-53
2023/06/27 11:35:37;;;;;;;2.53;1.35;;;25.20;72.60;;;;;;5053120;28;20447;-53
2023/06/27 11:38:07;;;;;;;2.67;1.23;;;24.90;72.20;;;;;;5051707;28;20477;-51
2023/06/27 11:40:33;;;;;;;3.55;1.52;;;25.00;71.50;;;;;;5053176;28;20025;-51
2023/06/27 11:43:08;;;;;;;3.80;1.60;;;25.00;72.50;;;;;;5053608;28;20104;-49
2023/06/27 11:45:36;;;;;;;;;;;25.00;71.50;;;;;;5053099;28;20489;-54
2023/06/27 11:48:01;;;;;;;2.40;1.30;;;25.00;72.30;;;;;;5052980;28;19959;-54
2023/06/27 11:50:28;;;;;;;7.78;1.55;;;24.90;72.20;;;;;;5053219;28;20033;-54
2023/06/27 11:52:56;;;;;;;1.40;1.20;;;24.80;71.70;;;;;;5035502;28;20021;-54
2023/06/27 11:55:22;;;;;;;2.60;1.40;;;24.80;71.30;;;;;;5052332;28;20087;-53
2023/06/27 11:57:55;;;;;;;1.88;1.20;;;25.00;71.30;;;;;;5053720;28;20435;-55
2023/06/27 12:00:25;;;;;;;2.65;1.30;;;25.10;72.40;;;;;;5038614;28;20063;-53
2023/06/27 12:03:00;;;;;;;1.88;1.35;;;25.00;69.40;;;;;;5054438;28;20029;-50
2023/06/27 12:05:26;;;;;;;;;;;25.10;70.00;;;;;;5056970;28;20104;-52
2023/06/27 12:08:05;;;;;;;2.70;1.42;;;25.00;68.10;;;;;;5057753;28;19982;-52
2023/06/27 12:10:32;;;;;;;2.17;1.08;;;25.00;70.00;;;;;;5056244;28;20037;-53
2023/06/27 12:13:02;;;;;;;1.60;1.42;;;24.90;70.20;;;;;;5055817;28;20033;-53
2023/06/27 12:15:28;;;;;;;7.40;1.27;;;25.00;70.10;;;;;;5055146;28;20505;-54
2023/06/27 12:17:55;;;;;;;4.07;1.05;;;24.90;69.20;;;;;;5055143;28;20056;-55
2023/06/27 12:20:21;;;;;;;5.22;1.80;;;24.90;68.90;;;;;;5055500;28;20040;-50
2023/06/27 12:22:47;;;;;;;3.80;2.30;;;24.90;69.10;;;;;;5060542;28;20020;-52
2023/06/27 12:25:12;;;;;;;4.15;1.60;;;24.80;68.70;;;;;;5057902;28;20391;-56
2023/06/27 12:27:38;;;;;;;3.35;1.33;;;24.80;67.80;;;;;;5055103;28;20033;-54
2023/06/27 12:30:05;;;;;;;2.17;1.33;;;24.80;68.60;;;;;;5054012;28;20021;-55
2023/06/27 12:32:31;;;;;;;4.20;1.25;;;24.90;69.40;;;;;;5055878;28;20027;-54
2023/06/27 12:34:56;;;;;;;1.40;1.20;;;25.00;67.70;;;;;;5059053;28;20100;-51
2023/06/27 12:37:23;;;;;;;3.88;1.20;;;25.00;68.60;;;;;;5064090;28;20176;-51
2023/06/27 12:39:48;;;;;;;4.55;1.48;;;25.10;68.40;;;;;;5059172;28;20021;-51
2023/06/27 12:42:14;;;;;;;1.48;1.05;;;25.10;69.30;;;;;;5037095;28;20327;-56
2023/06/27 12:44:39;;;;;;;2.42;1.42;;;25.20;68.90;;;;;;5035485;28;20021;-53
2023/06/27 12:47:05;;;;;;;2.28;1.30;;;25.30;67.40;;;;;;5062087;28;20398;-52